Time;durP1;ratioP1;P1;durP2;ratioP2;P2;SDS_P1;SDS_P2;PMS_P1;PMS_P2;Temp;Humidity;BMP_temperature;BMP_pressure;BME280_temperature;BME280_humidity;BME280_pressure;Samples;Min_cycle;Max_cycle;Signal;HPM_P1;HPM_P2
2023/12/03 00:01:56;;;;;;;30.83;17.87;;;1.00;99.90;;;;;;4967480;28;20209;-82
2023/12/03 00:04:24;;;;;;;28.50;17.90;;;1.00;99.90;;;;;;4954584;28;20573;-82
2023/12/03 00:06:52;;;;;;;32.70;17.80;;;1.00;99.90;;;;;;4958665;29;20209;-82
2023/12/03 00:09:20;;;;;;;32.97;19.67;;;1.00;99.90;;;;;;4968792;28;20206;-82
2023/12/03 00:11:48;;;;;;;28.87;17.97;;;1.10;99.90;;;;;;4971788;28;20227;-85
2023/12/03 00:14:16;;;;;;;33.57;19.57;;;1.10;99.90;;;;;;4957243;29;20205;-83
2023/12/03 00:16:43;;;;;;;29.63;17.87;;;1.20;99.90;;;;;;4956989;29;20213;-82
2023/12/03 00:19:11;;;;;;;30.03;18.53;;;1.20;99.90;;;;;;4957829;28;20202;-82
2023/12/03 00:21:38;;;;;;;31.80;18.70;;;1.10;99.90;;;;;;4958143;29;20649;-82
2023/12/03 00:24:06;;;;;;;32.33;19.33;;;1.10;99.90;;;;;;4956017;29;20219;-83
2023/12/03 00:26:34;;;;;;;34.77;19.50;;;1.20;99.90;;;;;;4973336;28;20201;-83
2023/12/03 00:29:03;;;;;;;31.53;18.33;;;1.20;99.90;;;;;;4957644;28;20198;-83
2023/12/03 00:31:30;;;;;;;33.73;19.60;;;1.20;99.90;;;;;;4972709;28;20607;-83
2023/12/03 00:33:58;;;;;;;33.30;19.20;;;1.20;99.90;;;;;;4956611;28;20301;-83
2023/12/03 00:36:25;;;;;;;30.07;18.70;;;1.20;99.90;;;;;;4981254;28;20209;-83
2023/12/03 00:38:52;;;;;;;30.67;18.63;;;1.20;99.90;;;;;;4958530;29;20208;-85
2023/12/03 00:41:20;;;;;;;30.43;19.47;;;1.20;99.90;;;;;;4971243;28;20224;-84
2023/12/03 00:43:47;;;;;;;30.03;18.97;;;1.20;99.90;;;;;;4957543;28;20207;-82
2023/12/03 00:46:17;;;;;;;30.53;19.30;;;1.10;99.90;;;;;;4976251;28;20219;-82
2023/12/03 00:48:45;;;;;;;32.37;19.67;;;1.20;99.90;;;;;;4957396;29;20206;-86
2023/12/03 00:51:13;;;;;;;30.43;18.37;;;1.20;99.90;;;;;;4953952;29;20230;-83
2023/12/03 00:53:41;;;;;;;32.40;19.63;;;1.30;99.90;;;;;;4956454;29;20209;-84
2023/12/03 00:56:10;;;;;;;28.97;18.33;;;1.30;99.90;;;;;;4981416;28;20205;-83
2023/12/03 00:58:37;;;;;;;30.10;18.70;;;1.20;99.90;;;;;;4959057;29;20210;-83
2023/12/03 01:01:05;;;;;;;30.10;18.23;;;1.30;99.90;;;;;;4958104;28;20221;-83
2023/12/03 01:03:34;;;;;;;27.77;16.93;;;1.20;99.90;;;;;;4959217;29;20201;-83
2023/12/03 01:06:02;;;;;;;32.33;18.97;;;1.20;99.90;;;;;;4961836;28;20208;-83
2023/12/03 01:08:29;;;;;;;33.67;19.80;;;1.10;99.90;;;;;;4975054;28;20206;-83
2023/12/03 01:10:57;;;;;;;34.87;17.60;;;1.10;99.90;;;;;;4955357;29;20228;-83
2023/12/03 01:13:24;;;;;;;28.33;17.37;;;1.10;99.90;;;;;;4971918;28;20221;-83
2023/12/03 01:15:51;;;;;;;29.70;17.73;;;1.10;99.90;;;;;;4961964;28;20209;-83
2023/12/03 01:18:19;;;;;;;30.97;17.73;;;1.10;99.90;;;;;;4980014;28;20210;-83
2023/12/03 01:20:48;;;;;;;29.73;18.63;;;1.10;99.90;;;;;;4961730;28;20249;-82
2023/12/03 01:23:15;;;;;;;27.50;17.13;;;1.10;99.90;;;;;;4959974;28;20194;-83
2023/12/03 01:25:42;;;;;;;31.67;19.07;;;1.10;99.90;;;;;;4980612;28;20201;-85
2023/12/03 01:28:10;;;;;;;30.93;18.80;;;1.10;99.90;;;;;;4959779;29;20198;-83
2023/12/03 01:30:37;;;;;;;27.43;17.60;;;1.10;99.90;;;;;;4961777;28;20614;-82
2023/12/03 01:33:04;;;;;;;31.07;18.57;;;1.10;99.90;;;;;;4975365;28;20709;-84
2023/12/03 01:35:31;;;;;;;30.43;17.60;;;1.10;99.90;;;;;;4960277;28;20200;-83
2023/12/03 01:38:00;;;;;;;30.33;18.53;;;1.00;99.90;;;;;;4973319;28;20200;-83
2023/12/03 01:40:28;;;;;;;32.20;19.43;;;1.10;99.90;;;;;;4973062;28;20229;-83
2023/12/03 01:42:55;;;;;;;31.50;19.33;;;1.00;99.90;;;;;;4975257;28;20205;-84
2023/12/03 01:45:25;;;;;;;34.07;19.70;;;1.00;99.90;;;;;;4962533;28;20199;-84
2023/12/03 01:47:52;;;;;;;28.70;18.07;;;1.00;99.90;;;;;;4974333;28;20211;-83
2023/12/03 01:50:21;;;;;;;34.40;19.73;;;1.00;99.90;;;;;;4961366;28;20232;-83
2023/12/03 01:52:48;;;;;;;30.40;19.07;;;1.00;99.90;;;;;;4962009;28;20704;-83
2023/12/03 01:55:18;;;;;;;40.93;25.20;;;0.90;99.90;;;;;;4959974;29;20225;-82
2023/12/03 01:57:47;;;;;;;39.30;22.70;;;0.90;99.90;;;;;;4978245;28;20226;-83
2023/12/03 02:00:14;;;;;;;37.27;22.30;;;0.90;99.90;;;;;;4955823;28;20233;-84
2023/12/03 02:02:42;;;;;;;41.07;22.77;;;0.90;99.90;;;;;;4955502;29;20214;-84
2023/12/03 02:05:10;;;;;;;37.73;22.37;;;1.00;99.90;;;;;;4978723;28;20222;-83
2023/12/03 02:07:37;;;;;;;37.07;21.67;;;1.00;99.90;;;;;;4975307;28;20215;-83
2023/12/03 02:10:06;;;;;;;39.60;23.07;;;1.00;99.90;;;;;;4962198;29;20229;-82
2023/12/03 02:12:35;;;;;;;40.60;21.43;;;1.10;99.90;;;;;;4961212;28;20213;-83
2023/12/03 02:15:02;;;;;;;41.43;23.90;;;1.10;99.90;;;;;;4961247;29;20663;-83
2023/12/03 02:17:30;;;;;;;39.47;23.20;;;1.10;99.90;;;;;;4962364;28;20216;-83
2023/12/03 02:19:57;;;;;;;40.47;21.63;;;1.00;99.90;;;;;;4981206;28;20576;-83
2023/12/03 02:22:25;;;;;;;39.33;23.30;;;1.00;99.90;;;;;;4969002;28;20197;-85
2023/12/03 02:24:54;;;;;;;40.30;21.83;;;1.10;99.90;;;;;;4977720;28;20209;-82
2023/12/03 02:27:21;;;;;;;42.97;22.13;;;1.10;99.90;;;;;;4961323;28;20209;-82
2023/12/03 02:29:49;;;;;;;38.60;20.77;;;1.10;99.90;;;;;;4971680;28;20234;-82
2023/12/03 02:32:16;;;;;;;36.27;20.77;;;1.10;99.90;;;;;;4974684;28;20310;-83
2023/12/03 02:34:44;;;;;;;40.03;21.53;;;1.20;99.90;;;;;;4957770;29;20201;-83
2023/12/03 02:37:11;;;;;;;41.33;21.47;;;1.10;99.90;;;;;;4961898;29;20190;-82
2023/12/03 02:39:38;;;;;;;40.93;22.00;;;1.10;99.90;;;;;;4948985;29;20222;-83
2023/12/03 02:42:07;;;;;;;40.10;22.77;;;1.10;99.90;;;;;;4960542;29;20201;-82
2023/12/03 02:44:35;;;;;;;44.00;24.00;;;1.20;99.90;;;;;;4953560;29;20194;-82
2023/12/03 02:47:02;;;;;;;37.60;21.50;;;1.20;99.90;;;;;;4954021;29;20216;-83
2023/12/03 02:49:29;;;;;;;42.33;23.83;;;1.10;99.90;;;;;;4975720;28;20222;-83
2023/12/03 02:51:57;;;;;;;39.00;21.47;;;1.20;99.90;;;;;;4958397;29;20201;-82
2023/12/03 02:54:24;;;;;;;46.53;25.23;;;1.10;99.90;;;;;;4955284;29;20202;-83
2023/12/03 02:56:52;;;;;;;42.13;24.73;;;1.10;99.90;;;;;;4958736;29;20214;-82
2023/12/03 02:59:21;;;;;;;42.20;23.30;;;1.20;99.90;;;;;;4960999;28;20213;-83
2023/12/03 03:01:48;;;;;;;42.70;22.90;;;1.20;99.90;;;;;;4954549;29;20203;-83
2023/12/03 03:04:15;;;;;;;39.47;22.10;;;1.20;99.90;;;;;;4974196;28;20209;-83
2023/12/03 03:06:43;;;;;;;42.57;23.30;;;1.20;99.90;;;;;;4967089;28;20201;-84
2023/12/03 03:09:10;;;;;;;41.77;23.13;;;1.20;99.90;;;;;;4956242;29;20198;-83
2023/12/03 03:11:38;;;;;;;45.03;24.10;;;1.20;99.90;;;;;;4954661;29;20197;-82
2023/12/03 03:14:05;;;;;;;41.57;22.37;;;1.20;99.90;;;;;;4958981;28;20235;-82
2023/12/03 03:16:34;;;;;;;43.53;25.43;;;1.20;99.90;;;;;;4952008;29;20213;-82
2023/12/03 03:19:02;;;;;;;47.93;24.47;;;1.20;99.90;;;;;;4960934;28;20219;-82
2023/12/03 03:21:29;;;;;;;44.87;22.93;;;1.20;99.90;;;;;;4973391;28;20208;-83
2023/12/03 03:23:57;;;;;;;47.20;24.67;;;1.20;99.90;;;;;;4957104;28;20209;-82
2023/12/03 03:26:24;;;;;;;43.47;23.20;;;1.30;99.90;;;;;;4980311;28;20202;-82
2023/12/03 03:28:52;;;;;;;45.93;24.00;;;1.20;99.90;;;;;;4959761;29;20200;-83
2023/12/03 03:31:19;;;;;;;42.00;23.53;;;1.30;99.90;;;;;;4957910;28;20245;-83
2023/12/03 03:33:49;;;;;;;47.47;23.30;;;1.30;99.90;;;;;;4963164;28;20213;-82
2023/12/03 03:36:16;;;;;;;52.93;25.50;;;1.30;99.90;;;;;;4954106;28;20201;-82
2023/12/03 03:38:45;;;;;;;47.70;26.00;;;1.20;99.90;;;;;;4970936;28;20206;-83
2023/12/03 03:41:12;;;;;;;43.63;21.90;;;1.30;99.90;;;;;;4955622;28;20225;-83
2023/12/03 03:43:39;;;;;;;42.83;23.87;;;1.30;99.90;;;;;;4961551;28;20197;-84
2023/12/03 03:46:07;;;;;;;48.07;24.87;;;1.30;99.90;;;;;;4957056;29;20206;-82
2023/12/03 03:48:35;;;;;;;44.53;24.87;;;1.50;99.90;;;;;;4957687;29;20212;-83
2023/12/03 03:51:06;;;;;;;46.20;23.10;;;1.40;99.90;;;;;;4958967;28;20664;-82
2023/12/03 03:53:33;;;;;;;46.53;23.17;;;1.30;99.90;;;;;;4953022;28;20222;-82
2023/12/03 03:56:07;;;;;;;45.83;26.20;;;1.30;99.90;;;;;;4971094;28;20208;-83
2023/12/03 03:58:34;;;;;;;43.73;23.70;;;1.30;99.90;;;;;;4959477;29;20197;-83
2023/12/03 04:01:04;;;;;;;41.37;23.60;;;1.40;99.90;;;;;;4960230;29;20221;-84
2023/12/03 04:03:32;;;;;;;45.43;24.33;;;1.40;99.90;;;;;;4958724;29;20203;-82
2023/12/03 04:06:01;;;;;;;43.73;23.83;;;1.40;99.90;;;;;;4954399;28;20201;-83
2023/12/03 04:08:29;;;;;;;40.47;22.37;;;1.40;99.90;;;;;;4955405;28;20213;-83
2023/12/03 04:10:57;;;;;;;46.93;25.30;;;1.40;99.90;;;;;;4955749;29;20226;-83
2023/12/03 04:13:25;;;;;;;45.17;24.03;;;1.40;99.90;;;;;;4955704;29;20214;-83
2023/12/03 04:15:53;;;;;;;44.23;24.53;;;1.30;99.90;;;;;;4956158;29;20204;-83
2023/12/03 04:18:20;;;;;;;48.13;24.93;;;1.30;99.90;;;;;;4958452;29;20195;-83
2023/12/03 04:20:47;;;;;;;45.80;24.03;;;1.40;99.90;;;;;;4973999;28;20242;-83
2023/12/03 04:23:15;;;;;;;42.10;23.67;;;1.40;99.90;;;;;;4957242;29;20204;-83
2023/12/03 04:25:44;;;;;;;42.50;22.70;;;1.30;99.90;;;;;;4956774;29;20698;-82
2023/12/03 04:28:11;;;;;;;44.30;24.83;;;1.30;99.90;;;;;;4957030;29;20201;-83
2023/12/03 04:30:39;;;;;;;41.67;24.13;;;1.30;99.90;;;;;;4973640;28;20233;-84
2023/12/03 04:33:06;;;;;;;42.47;22.60;;;1.30;99.90;;;;;;4957147;29;20237;-82
2023/12/03 04:35:33;;;;;;;41.10;22.53;;;1.30;99.90;;;;;;4959532;29;20198;-82
2023/12/03 04:38:01;;;;;;;38.27;20.53;;;1.40;99.90;;;;;;4956334;29;20675;-83
2023/12/03 04:40:28;;;;;;;38.57;21.20;;;1.50;99.90;;;;;;4952079;29;20233;-83
2023/12/03 04:42:57;;;;;;;35.80;20.30;;;1.50;99.90;;;;;;4959642;29;20574;-82
2023/12/03 04:45:24;;;;;;;35.90;20.03;;;1.50;88.50;;;;;;4954904;29;20217;-83
2023/12/03 04:47:52;;;;;;;32.07;19.47;;;1.50;36.20;;;;;;4968772;28;20579;-82
2023/12/03 04:50:19;;;;;;;30.50;19.67;;;1.50;1.00;;;;;;4954672;28;20228;-81
2023/12/03 04:52:47;;;;;;;36.67;19.93;;;1.50;1.00;;;;;;4974287;28;20213;-81
2023/12/03 04:55:14;;;;;;;31.83;17.83;;;1.50;1.00;;;;;;4956899;28;20234;-81
2023/12/03 04:57:42;;;;;;;34.97;20.43;;;1.40;1.00;;;;;;4958119;29;20554;-82
2023/12/03 05:00:12;;;;;;;35.60;20.27;;;1.40;1.00;;;;;;4959194;28;20228;-82
2023/12/03 05:02:39;;;;;;;30.70;18.37;;;1.50;1.00;;;;;;4957804;29;20198;-82
2023/12/03 05:05:08;;;;;;;31.17;19.23;;;1.50;1.00;;;;;;4959433;28;20205;-82
2023/12/03 05:07:35;;;;;;;34.67;18.33;;;1.50;1.00;;;;;;4959918;29;20217;-82
2023/12/03 05:10:03;;;;;;;32.40;18.37;;;1.40;1.00;;;;;;4959063;28;20217;-82
2023/12/03 05:12:30;;;;;;;31.27;17.70;;;1.40;1.00;;;;;;4958114;28;20208;-81
2023/12/03 05:14:57;;;;;;;33.63;18.57;;;1.40;1.00;;;;;;4960554;29;20298;-82
2023/12/03 05:17:26;;;;;;;33.03;18.53;;;1.50;1.00;;;;;;4958543;29;20211;-82
2023/12/03 05:19:54;;;;;;;31.87;18.00;;;1.60;1.00;;;;;;4972745;28;20606;-82
2023/12/03 05:22:21;;;;;;;32.30;17.53;;;1.60;1.00;;;;;;4953000;28;20198;-81
2023/12/03 05:24:49;;;;;;;30.10;18.40;;;1.60;1.00;;;;;;4967749;28;20286;-82
2023/12/03 05:27:16;;;;;;;30.27;18.50;;;1.50;1.00;;;;;;4974709;28;20208;-82
2023/12/03 05:29:44;;;;;;;28.33;16.90;;;1.50;1.00;;;;;;4972389;28;20223;-82
2023/12/03 05:32:12;;;;;;;30.97;18.03;;;1.50;1.00;;;;;;4956312;29;20206;-82
2023/12/03 05:34:44;;;;;;;30.00;17.77;;;1.60;1.00;;;;;;4950476;28;20226;-82
2023/12/03 05:37:12;;;;;;;30.50;17.17;;;1.60;1.00;;;;;;4962757;29;20197;-82
2023/12/03 05:39:39;;;;;;;27.67;16.70;;;1.50;1.00;;;;;;4962692;28;20225;-82
2023/12/03 05:42:07;;;;;;;30.80;16.87;;;1.50;1.00;;;;;;4974807;28;20208;-82
2023/12/03 05:44:35;;;;;;;29.13;16.23;;;1.60;1.00;;;;;;4958395;29;20202;-82
2023/12/03 05:47:02;;;;;;;31.93;17.50;;;1.50;1.00;;;;;;4958884;28;20688;-82
2023/12/03 05:49:29;;;;;;;26.13;15.53;;;1.50;1.00;;;;;;4957417;28;20228;-83
2023/12/03 05:51:58;;;;;;;27.13;15.43;;;1.50;1.00;;;;;;4967826;29;20209;-82
2023/12/03 05:54:26;;;;;;;25.97;15.20;;;1.50;1.00;;;;;;4987011;28;20232;-82
2023/12/03 05:56:53;;;;;;;25.93;14.93;;;1.50;1.00;;;;;;4955683;29;20209;-82
2023/12/03 05:59:22;;;;;;;28.03;14.37;;;1.50;1.00;;;;;;4958689;28;20225;-82
2023/12/03 06:01:50;;;;;;;29.80;17.37;;;1.50;99.90;;;;;;4959429;28;20202;-82
2023/12/03 06:04:17;;;;;;;24.33;14.93;;;1.50;99.90;;;;;;4974816;28;20652;-82
2023/12/03 06:06:45;;;;;;;26.77;15.47;;;1.50;99.90;;;;;;4954376;29;20674;-82
2023/12/03 06:09:14;;;;;;;26.40;15.23;;;1.60;99.90;;;;;;4972138;28;20203;-82
2023/12/03 06:11:41;;;;;;;28.00;15.63;;;1.50;99.90;;;;;;4960851;29;20611;-82
2023/12/03 06:14:08;;;;;;;21.87;13.33;;;1.60;99.90;;;;;;4960307;29;20250;-82
2023/12/03 06:16:36;;;;;;;26.63;14.40;;;1.60;1.00;;;;;;4951458;29;20205;-82
2023/12/03 06:19:04;;;;;;;26.80;14.63;;;1.50;1.00;;;;;;4958647;28;20202;-82
2023/12/03 06:21:31;;;;;;;26.13;14.77;;;1.50;1.00;;;;;;4959459;29;21365;-82
2023/12/03 06:23:58;;;;;;;25.67;14.07;;;1.50;1.00;;;;;;4970719;28;20211;-82
2023/12/03 06:26:27;;;;;;;24.83;14.37;;;1.50;1.00;;;;;;4974503;28;20216;-82
2023/12/03 06:28:55;;;;;;;21.43;12.80;;;1.50;1.00;;;;;;4975051;28;20198;-82
2023/12/03 06:31:22;;;;;;;26.63;14.93;;;1.60;1.00;;;;;;4953753;28;20229;-82
2023/12/03 06:33:50;;;;;;;24.30;14.30;;;1.60;1.00;;;;;;4970928;28;20208;-82
2023/12/03 06:36:17;;;;;;;22.70;13.53;;;1.60;1.00;;;;;;4974374;28;20206;-82
2023/12/03 06:38:45;;;;;;;23.63;14.70;;;1.60;1.00;;;;;;4957884;29;20204;-82
2023/12/03 06:41:12;;;;;;;22.50;14.10;;;1.60;99.90;;;;;;4972227;28;20241;-82
2023/12/03 06:43:41;;;;;;;25.97;14.37;;;1.70;99.90;;;;;;4953321;29;20206;-82
2023/12/03 06:46:09;;;;;;;24.83;14.03;;;1.70;99.90;;;;;;4959056;29;20565;-82
2023/12/03 06:48:36;;;;;;;22.20;12.50;;;1.70;92.40;;;;;;4958538;29;20205;-79
2023/12/03 06:51:04;;;;;;;21.93;13.93;;;1.70;1.00;;;;;;4954367;28;20218;-78
2023/12/03 06:53:32;;;;;;;22.73;13.47;;;1.90;1.00;;;;;;4954768;28;20203;-78
2023/12/03 06:55:59;;;;;;;19.37;12.07;;;2.40;1.00;;;;;;4952668;29;20226;-82
2023/12/03 06:58:28;;;;;;;23.27;13.50;;;2.10;1.00;;;;;;4957734;28;20213;-82
2023/12/03 07:00:57;;;;;;;25.50;14.43;;;1.90;1.00;;;;;;4948635;28;20233;-80
2023/12/03 07:03:27;;;;;;;21.20;13.50;;;1.80;1.00;;;;;;4978054;28;20220;-83
2023/12/03 07:09:54;;;;;;;24.23;13.07;;;1.70;1.00;;;;;;4912645;28;20220;-81
2023/12/03 07:12:24;;;;;;;22.37;13.03;;;1.70;99.90;;;;;;4950331;28;20211;-82
2023/12/03 07:14:51;;;;;;;21.40;12.33;;;1.70;99.90;;;;;;4953577;28;20233;-82
2023/12/03 07:17:20;;;;;;;23.37;13.43;;;1.60;1.00;;;;;;4960586;28;20206;-82
2023/12/03 07:19:48;;;;;;;20.97;12.80;;;1.70;1.00;;;;;;4964249;28;20248;-82
2023/12/03 07:22:23;;;;;;;22.20;13.53;;;1.70;1.00;;;;;;4972171;28;20202;-82
2023/12/03 07:24:58;;;;;;;23.00;13.53;;;1.70;1.00;;;;;;4955751;28;20209;-81
2023/12/03 07:27:30;;;;;;;19.60;12.07;;;1.70;99.90;;;;;;4955404;29;20210;-82
2023/12/03 07:30:02;;;;;;;20.00;12.00;;;1.70;1.00;;;;;;4970506;28;20222;-82
2023/12/03 07:32:31;;;;;;;20.87;13.47;;;1.80;99.90;;;;;;4973813;28;20207;-81
2023/12/03 07:34:58;;;;;;;22.43;12.80;;;1.70;99.90;;;;;;4963638;28;20214;-81
2023/12/03 07:37:26;;;;;;;20.40;12.20;;;1.70;99.90;;;;;;4953509;28;20212;-82
2023/12/03 07:39:53;;;;;;;20.30;12.30;;;1.70;99.90;;;;;;4964899;28;20222;-82
2023/12/03 07:42:21;;;;;;;21.60;11.73;;;1.80;99.90;;;;;;4973106;28;20212;-82
2023/12/03 07:44:48;;;;;;;26.10;13.90;;;1.80;99.90;;;;;;4958265;29;20195;-82
2023/12/03 07:47:18;;;;;;;20.63;12.70;;;1.80;99.90;;;;;;4959572;29;20206;-82
2023/12/03 07:49:52;;;;;;;24.10;12.97;;;1.80;99.90;;;;;;4958099;28;20225;-81
2023/12/03 07:52:20;;;;;;;21.03;12.90;;;1.80;76.80;;;;;;4959685;28;20568;-83
2023/12/03 07:54:48;;;;;;;21.50;13.03;;;1.80;1.00;;;;;;4956765;28;20238;-82
2023/12/03 07:57:15;;;;;;;20.90;13.63;;;1.80;99.90;;;;;;4958649;28;20202;-83
2023/12/03 07:59:43;;;;;;;25.13;14.70;;;1.80;54.10;;;;;;4956654;28;20237;-82
2023/12/03 08:02:11;;;;;;;23.83;14.30;;;1.80;1.00;;;;;;4955992;28;20209;-80
2023/12/03 08:04:39;;;;;;;24.00;12.63;;;1.80;1.00;;;;;;4948349;28;20217;-80
2023/12/03 08:07:08;;;;;;;21.17;13.17;;;1.80;1.00;;;;;;4954465;28;20579;-80
2023/12/03 08:09:35;;;;;;;20.20;11.97;;;1.80;99.90;;;;;;4973125;28;20240;-81
2023/12/03 08:12:03;;;;;;;21.57;13.07;;;1.70;99.90;;;;;;4964992;28;20201;-81
2023/12/03 08:14:30;;;;;;;18.93;12.67;;;1.80;99.90;;;;;;4954190;29;20202;-80
2023/12/03 08:16:59;;;;;;;21.47;12.50;;;1.70;11.00;;;;;;4952679;28;20233;-81
2023/12/03 08:19:27;;;;;;;23.57;12.83;;;1.80;84.70;;;;;;4953007;28;20226;-81
2023/12/03 08:21:54;;;;;;;20.33;12.30;;;1.80;1.00;;;;;;4950879;28;20225;-83
2023/12/03 08:24:23;;;;;;;20.73;13.07;;;1.80;1.00;;;;;;4946824;28;20208;-83
2023/12/03 08:26:51;;;;;;;18.53;12.07;;;1.80;1.00;;;;;;4956681;28;20209;-83
2023/12/03 08:29:19;;;;;;;20.60;13.63;;;1.90;1.00;;;;;;4966961;28;20660;-81
2023/12/03 08:31:47;;;;;;;20.77;11.87;;;1.90;99.90;;;;;;4953565;28;20235;-81
2023/12/03 08:34:15;;;;;;;20.30;12.90;;;1.90;99.90;;;;;;4957151;29;20205;-82
2023/12/03 08:36:42;;;;;;;21.53;12.60;;;1.90;99.90;;;;;;4952113;28;20311;-82
2023/12/03 08:39:12;;;;;;;20.47;12.83;;;1.90;9.60;;;;;;4958303;28;20657;-83
2023/12/03 08:41:41;;;;;;;21.93;14.73;;;1.90;1.00;;;;;;4951018;29;20206;-82
2023/12/03 08:44:08;;;;;;;18.13;10.67;;;1.90;1.00;;;;;;4963937;28;20205;-83
2023/12/03 08:46:36;;;;;;;19.43;12.30;;;1.90;99.90;;;;;;4954614;29;20198;-83
2023/12/03 08:49:04;;;;;;;20.87;13.50;;;2.00;99.90;;;;;;4968198;28;20204;-83
2023/12/03 08:51:32;;;;;;;16.47;11.60;;;1.90;1.00;;;;;;4937283;29;20179;-83
2023/12/03 08:53:59;;;;;;;15.03;9.67;;;1.90;1.00;;;;;;4971192;28;20214;-83
2023/12/03 08:56:27;;;;;;;18.00;11.00;;;1.90;1.00;;;;;;4954709;29;20233;-84
2023/12/03 08:58:56;;;;;;;19.40;12.03;;;1.90;1.00;;;;;;4955294;29;20198;-83
2023/12/03 09:01:23;;;;;;;18.63;10.57;;;1.80;99.90;;;;;;4955875;28;20719;-83
2023/12/03 09:03:51;;;;;;;18.30;11.70;;;1.80;99.90;;;;;;4954735;29;20209;-87
2023/12/03 09:06:19;;;;;;;18.60;11.20;;;1.80;99.90;;;;;;4955191;28;20282;-83
2023/12/03 09:08:46;;;;;;;17.50;10.17;;;1.90;99.90;;;;;;4955684;29;20205;-83
2023/12/03 09:11:14;;;;;;;18.37;11.00;;;1.90;99.90;;;;;;4955094;28;20222;-83
2023/12/03 09:13:45;;;;;;;17.40;10.33;;;1.90;1.00;;;;;;4954900;29;20194;-84
2023/12/03 09:16:14;;;;;;;16.83;10.53;;;1.90;1.00;;;;;;4954349;29;20246;-86
2023/12/03 09:18:42;;;;;;;14.97;10.47;;;1.90;1.00;;;;;;4954881;29;20204;-83
2023/12/03 09:21:11;;;;;;;17.73;10.70;;;1.90;99.90;;;;;;4954545;28;20237;-84
2023/12/03 09:23:39;;;;;;;18.07;11.17;;;1.90;99.90;;;;;;4956502;29;20187;-83
2023/12/03 09:26:07;;;;;;;21.53;11.93;;;2.00;99.90;;;;;;4970947;28;20197;-84
2023/12/03 09:28:35;;;;;;;20.63;11.17;;;2.00;99.90;;;;;;4971080;28;20202;-83
2023/12/03 09:31:02;;;;;;;16.97;10.03;;;2.10;1.00;;;;;;4971275;28;20233;-84
2023/12/03 09:33:31;;;;;;;15.73;10.43;;;2.20;1.00;;;;;;4971448;28;20211;-83
2023/12/03 09:35:59;;;;;;;17.63;11.53;;;2.20;99.90;;;;;;4955833;28;20222;-83
2023/12/03 09:38:27;;;;;;;15.13;10.73;;;2.30;1.00;;;;;;4971683;28;20225;-83
2023/12/03 09:40:56;;;;;;;18.33;11.30;;;2.40;1.00;;;;;;4965924;28;20227;-84
2023/12/03 09:43:28;;;;;;;15.13;9.90;;;2.50;1.00;;;;;;4958787;29;20195;-84
2023/12/03 09:45:57;;;;;;;15.80;10.40;;;2.50;99.90;;;;;;4958948;29;20198;-85
2023/12/03 09:48:30;;;;;;;16.20;10.63;;;2.40;99.90;;;;;;4960082;28;20209;-84
2023/12/03 09:51:01;;;;;;;16.73;10.93;;;3.60;99.90;;;;;;4959612;28;20214;-83
2023/12/03 09:53:31;;;;;;;17.50;10.10;;;2.90;19.90;;;;;;4950012;29;20208;-82
2023/12/03 09:56:01;;;;;;;16.03;11.07;;;2.70;1.00;;;;;;4957291;28;20216;-83
2023/12/03 09:58:29;;;;;;;20.47;10.57;;;2.60;1.00;;;;;;4958528;28;20203;-84
2023/12/03 10:01:01;;;;;;;18.10;10.17;;;2.60;1.00;;;;;;4963595;28;20234;-84
2023/12/03 10:03:28;;;;;;;17.40;10.87;;;2.70;1.00;;;;;;4949724;29;20692;-85
2023/12/03 10:05:57;;;;;;;16.67;10.20;;;2.90;1.00;;;;;;4958695;28;20198;-83
2023/12/03 10:08:25;;;;;;;15.57;10.40;;;2.90;99.90;;;;;;4957202;29;20211;-81
2023/12/03 10:10:58;;;;;;;15.07;10.37;;;2.90;99.90;;;;;;4956348;28;20251;-83
2023/12/03 10:13:27;;;;;;;15.10;10.07;;;2.90;1.00;;;;;;4953578;28;20232;-83
2023/12/03 10:15:55;;;;;;;16.57;9.60;;;3.00;1.00;;;;;;4966047;28;20246;-84
2023/12/03 10:18:23;;;;;;;17.67;10.37;;;3.10;99.90;;;;;;4968010;28;20207;-83
2023/12/03 10:21:04;;;;;;;16.40;9.90;;;3.20;99.90;;;;;;4958148;28;20244;-84
2023/12/03 10:23:33;;;;;;;16.47;9.90;;;3.40;17.10;;;;;;4970087;28;20210;-83
2023/12/03 10:26:10;;;;;;;19.33;10.50;;;3.50;1.00;;;;;;4958326;29;20201;-84
2023/12/03 10:28:37;;;;;;;14.33;9.10;;;3.70;1.00;;;;;;4961279;28;20204;-83
2023/12/03 10:31:06;;;;;;;15.13;9.13;;;3.90;33.50;;;;;;4946832;29;20234;-83
2023/12/03 10:33:33;;;;;;;13.77;9.83;;;3.90;1.00;;;;;;4954968;28;20205;-83
2023/12/03 10:36:04;;;;;;;13.60;9.37;;;4.00;1.00;;;;;;4960771;28;20201;-82
2023/12/03 10:38:38;;;;;;;14.27;9.80;;;3.90;1.00;;;;;;4955810;28;20294;-79
2023/12/03 10:41:08;;;;;;;15.13;9.67;;;3.90;1.00;;;;;;4970485;28;20233;-82
2023/12/03 10:43:36;;;;;;;13.47;8.67;;;3.90;1.00;;;;;;4973179;28;20205;-82
2023/12/03 10:46:09;;;;;;;15.33;9.07;;;4.00;1.00;;;;;;4963190;28;20203;-82
2023/12/03 10:48:36;;;;;;;16.50;9.73;;;4.00;1.00;;;;;;4955224;28;20210;-83
2023/12/03 10:51:05;;;;;;;14.93;9.97;;;3.80;1.00;;;;;;4956657;28;20233;-82
2023/12/03 10:53:36;;;;;;;17.13;11.10;;;3.90;1.00;;;;;;4957576;29;20684;-82
2023/12/03 10:56:09;;;;;;;15.27;10.23;;;4.40;1.00;;;;;;4960050;29;20206;-82
2023/12/03 10:58:41;;;;;;;16.33;9.70;;;4.30;99.90;;;;;;4962715;28;20204;-82
2023/12/03 11:01:09;;;;;;;17.63;9.87;;;3.90;99.90;;;;;;4961761;28;20226;-82
2023/12/03 11:03:55;;;;;;;14.93;10.10;;;4.00;1.00;;;;;;4959344;29;20209;-81
2023/12/03 11:06:24;;;;;;;16.80;9.70;;;4.10;99.90;;;;;;4964010;28;20194;-83
2023/12/03 11:08:52;;;;;;;17.33;9.77;;;3.80;1.00;;;;;;4974249;28;20209;-83
2023/12/03 11:11:27;;;;;;;14.27;9.07;;;3.90;1.00;;;;;;4950985;28;20256;-82
2023/12/03 11:13:57;;;;;;;14.80;9.77;;;4.30;1.00;;;;;;4942995;29;20199;-83
2023/12/03 11:16:32;;;;;;;15.77;10.57;;;4.80;99.90;;;;;;4941408;29;20237;-83
2023/12/03 11:19:04;;;;;;;18.03;10.93;;;4.60;99.90;;;;;;4957869;28;20210;-82
2023/12/03 11:21:39;;;;;;;17.87;11.07;;;4.10;99.90;;;;;;4946022;29;20209;-82
2023/12/03 11:24:34;;;;;;;15.40;10.33;;;4.30;99.90;;;;;;4954841;28;20210;-83
2023/12/03 11:27:03;;;;;;;14.60;9.87;;;4.30;99.90;;;;;;4945135;29;20546;-82
2023/12/03 11:29:51;;;;;;;20.27;11.33;;;3.90;99.90;;;;;;4937260;29;20221;-83
2023/12/03 11:32:21;;;;;;;18.43;11.17;;;4.40;99.90;;;;;;4957138;28;20202;-81
2023/12/03 11:35:02;;;;;;;16.77;10.13;;;4.00;99.90;;;;;;4954271;28;20203;-82
2023/12/03 11:37:29;;;;;;;15.30;9.80;;;4.20;99.90;;;;;;4939106;29;20218;-83
2023/12/03 11:40:02;;;;;;;16.00;9.30;;;4.50;99.90;;;;;;4930168;29;20222;-84
2023/12/03 11:42:42;;;;;;;16.27;10.30;;;4.30;99.90;;;;;;4959789;28;20204;-84
2023/12/03 11:45:23;;;;;;;17.57;10.70;;;4.50;93.70;;;;;;4929576;29;20208;-84
2023/12/03 11:48:05;;;;;;;16.87;11.13;;;4.70;99.90;;;;;;4954630;28;20202;-85
2023/12/03 11:50:34;;;;;;;14.67;9.60;;;4.90;1.00;;;;;;4945420;28;20219;-83
2023/12/03 11:53:02;;;;;;;16.13;10.00;;;4.10;24.90;;;;;;4954180;28;20229;-83
2023/12/03 11:55:34;;;;;;;17.23;10.43;;;4.20;57.60;;;;;;4934249;29;20664;-83
2023/12/03 11:58:04;;;;;;;19.17;10.17;;;3.70;99.90;;;;;;4955176;28;20218;-83
2023/12/03 12:00:32;;;;;;;16.40;10.60;;;4.10;99.90;;;;;;4948306;28;20221;-84
2023/12/03 12:03:00;;;;;;;15.97;9.60;;;4.30;67.80;;;;;;4953052;28;20648;-83
2023/12/03 12:05:27;;;;;;;16.43;10.90;;;4.20;68.30;;;;;;4924809;29;20207;-82
2023/12/03 12:08:21;;;;;;;17.30;10.97;;;3.80;99.90;;;;;;4933823;29;20197;-83
2023/12/03 12:10:53;;;;;;;15.43;10.37;;;4.50;80.60;;;;;;4954692;28;20231;-83
2023/12/03 12:13:23;;;;;;;14.40;9.73;;;4.40;6.00;;;;;;4952173;28;20224;-83
2023/12/03 12:15:50;;;;;;;15.23;9.97;;;4.40;1.00;;;;;;4939750;29;20251;-83
2023/12/03 12:18:19;;;;;;;15.33;9.50;;;5.00;1.00;;;;;;4936759;29;20206;-82
2023/12/03 12:20:46;;;;;;;15.93;10.07;;;5.50;1.00;;;;;;4931464;29;20234;-83
2023/12/03 12:23:14;;;;;;;14.43;9.50;;;5.30;1.00;;;;;;4939530;29;20704;-83
2023/12/03 12:25:42;;;;;;;15.93;9.93;;;5.10;1.00;;;;;;4946138;28;20216;-85
2023/12/03 12:28:10;;;;;;;17.33;10.03;;;5.00;1.00;;;;;;4949682;28;20198;-83
2023/12/03 12:30:41;;;;;;;19.37;10.73;;;4.80;1.00;;;;;;4950019;28;20233;-83
2023/12/03 12:33:09;;;;;;;16.50;10.30;;;5.90;1.00;;;;;;4934936;29;20216;-82
2023/12/03 12:35:37;;;;;;;17.37;10.93;;;5.70;1.00;;;;;;4939292;29;20212;-83
2023/12/03 12:38:06;;;;;;;15.60;9.63;;;6.20;1.00;;;;;;4934390;29;21720;-83
2023/12/03 12:40:38;;;;;;;14.80;10.03;;;5.60;1.00;;;;;;4944082;29;20241;-83
2023/12/03 12:43:07;;;;;;;15.17;9.63;;;6.10;1.00;;;;;;4931693;29;20204;-83
2023/12/03 12:45:34;;;;;;;15.40;9.50;;;6.70;1.00;;;;;;4954234;23;20223;-80
2023/12/03 12:48:04;;;;;;;16.30;11.00;;;7.30;1.00;;;;;;4932920;29;20230;-80
2023/12/03 12:50:39;;;;;;;15.50;10.43;;;6.20;99.90;;;;;;4931129;29;20211;-80
2023/12/03 12:53:08;;;;;;;16.63;10.53;;;6.40;99.90;;;;;;4918217;29;20205;-80